sensor_id;sensor_type;location;lat;lon;timestamp;pressure;altitude;pressure_sealevel;temperature;humidity
8061;BME280;4073;42.626;25.386;2023-03-04T00:02:01;97260.50;;;5.24;100.00
8061;BME280;4073;42.626;25.386;2023-03-04T00:04:27;97256.94;;;5.18;100.00
8061;BME280;4073;42.626;25.386;2023-03-04T00:06:52;97249.22;;;5.17;100.00
8061;BME280;4073;42.626;25.386;2023-03-04T00:09:18;97243.22;;;5.21;100.00
8061;BME280;4073;42.626;25.386;2023-03-04T00:11:43;97247.34;;;5.17;100.00
8061;BME280;4073;42.626;25.386;2023-03-04T00:14:09;97240.91;;;5.13;100.00
8061;BME280;4073;42.626;25.386;2023-03-04T00:16:34;97239.94;;;5.03;100.00
8061;BME280;4073;42.626;25.386;2023-03-04T00:19:00;97245.78;;;5.05;100.00
8061;BME280;4073;42.626;25.386;2023-03-04T00:21:25;97242.81;;;5.01;100.00
8061;BME280;4073;42.626;25.386;2023-03-04T00:23:51;97248.44;;;5.05;100.00
8061;BME280;4073;42.626;25.386;2023-03-04T00:26:17;97242.59;;;5.03;100.00
8061;BME280;4073;42.626;25.386;2023-03-04T00:28:43;97251.66;;;5.07;100.00
8061;BME280;4073;42.626;25.386;2023-03-04T00:31:09;97253.28;;;5.08;100.00
8061;BME280;4073;42.626;25.386;2023-03-04T00:33:35;97252.47;;;5.07;100.00
8061;BME280;4073;42.626;25.386;2023-03-04T00:36:01;97243.34;;;5.15;100.00
8061;BME280;4073;42.626;25.386;2023-03-04T00:38:27;97242.53;;;5.14;100.00
8061;BME280;4073;42.626;25.386;2023-03-04T00:40:53;97236.75;;;5.17;100.00
8061;BME280;4073;42.626;25.386;2023-03-04T00:43:18;97235.75;;;5.18;100.00
8061;BME280;4073;42.626;25.386;2023-03-04T00:45:44;97232.28;;;5.18;100.00
8061;BME280;4073;42.626;25.386;2023-03-04T00:48:10;97237.19;;;5.26;100.00
8061;BME280;4073;42.626;25.386;2023-03-04T00:50:35;97237.53;;;5.29;100.00
8061;BME280;4073;42.626;25.386;2023-03-04T00:53:01;97232.31;;;5.34;100.00
8061;BME280;4073;42.626;25.386;2023-03-04T00:55:27;97232.91;;;5.36;100.00
8061;BME280;4073;42.626;25.386;2023-03-04T00:57:52;97234.25;;;5.39;100.00
8061;BME280;4073;42.626;25.386;2023-03-04T01:00:18;97230.56;;;5.40;100.00
8061;BME280;4073;42.626;25.386;2023-03-04T01:02:44;97239.91;;;5.43;100.00
8061;BME280;4073;42.626;25.386;2023-03-04T01:05:10;97233.56;;;5.43;100.00
8061;BME280;4073;42.626;25.386;2023-03-04T01:07:35;97222.47;;;5.47;100.00
8061;BME280;4073;42.626;25.386;2023-03-04T01:10:01;97224.06;;;5.47;100.00
8061;BME280;4073;42.626;25.386;2023-03-04T01:12:26;97238.47;;;5.52;100.00
8061;BME280;4073;42.626;25.386;2023-03-04T01:14:52;97216.94;;;5.48;100.00
8061;BME280;4073;42.626;25.386;2023-03-04T01:17:18;97222.06;;;5.55;100.00
8061;BME280;4073;42.626;25.386;2023-03-04T01:19:44;97222.31;;;5.53;100.00
8061;BME280;4073;42.626;25.386;2023-03-04T01:22:10;97224.03;;;5.59;100.00
8061;BME280;4073;42.626;25.386;2023-03-04T01:24:36;97217.91;;;5.59;100.00
8061;BME280;4073;42.626;25.386;2023-03-04T01:27:02;97214.94;;;5.55;100.00
8061;BME280;4073;42.626;25.386;2023-03-04T01:29:28;97224.84;;;5.60;100.00
8061;BME280;4073;42.626;25.386;2023-03-04T01:31:56;97188.94;;;5.40;100.00
8061;BME280;4073;42.626;25.386;2023-03-04T01:34:21;97215.47;;;5.57;100.00
8061;BME280;4073;42.626;25.386;2023-03-04T01:36:47;97211.81;;;5.58;100.00
8061;BME280;4073;42.626;25.386;2023-03-04T01:39:12;97211.00;;;5.58;100.00
8061;BME280;4073;42.626;25.386;2023-03-04T01:41:38;97218.72;;;5.59;100.00
8061;BME280;4073;42.626;25.386;2023-03-04T01:44:04;97213.41;;;5.59;100.00
8061;BME280;4073;42.626;25.386;2023-03-04T01:46:30;97214.22;;;5.60;100.00
8061;BME280;4073;42.626;25.386;2023-03-04T01:48:56;97208.94;;;5.60;100.00
8061;BME280;4073;42.626;25.386;2023-03-04T01:51:22;97208.09;;;5.59;100.00
8061;BME280;4073;42.626;25.386;2023-03-04T01:53:49;97211.00;;;5.58;100.00
8061;BME280;4073;42.626;25.386;2023-03-04T01:56:35;97217.59;;;5.55;100.00
8061;BME280;4073;42.626;25.386;2023-03-04T01:59:14;97216.00;;;5.54;100.00
8061;BME280;4073;42.626;25.386;2023-03-04T02:01:42;97212.75;;;5.52;100.00
8061;BME280;4073;42.626;25.386;2023-03-04T02:04:08;97209.75;;;5.48;100.00
8061;BME280;4073;42.626;25.386;2023-03-04T02:06:36;97199.78;;;5.39;100.00
8061;BME280;4073;42.626;25.386;2023-03-04T02:09:03;97212.00;;;5.40;100.00
8061;BME280;4073;42.626;25.386;2023-03-04T02:11:28;97207.66;;;5.34;100.00
8061;BME280;4073;42.626;25.386;2023-03-04T02:13:53;97202.72;;;5.26;100.00
8061;BME280;4073;42.626;25.386;2023-03-04T02:16:19;97197.91;;;5.23;100.00
8061;BME280;4073;42.626;25.386;2023-03-04T02:18:44;97205.06;;;5.22;100.00
8061;BME280;4073;42.626;25.386;2023-03-04T02:21:18;97200.47;;;5.18;100.00
8061;BME280;4073;42.626;25.386;2023-03-04T02:26:26;97211.22;;;5.11;100.00
8061;BME280;4073;42.626;25.386;2023-03-04T02:28:54;97206.38;;;5.08;100.00
8061;BME280;4073;42.626;25.386;2023-03-04T02:33:46;97211.97;;;4.95;100.00
8061;BME280;4073;42.626;25.386;2023-03-04T02:36:11;97207.44;;;4.96;100.00
8061;BME280;4073;42.626;25.386;2023-03-04T02:38:37;97207.94;;;4.93;100.00
8061;BME280;4073;42.626;25.386;2023-03-04T02:41:03;97211.06;;;4.90;100.00
8061;BME280;4073;42.626;25.386;2023-03-04T02:43:30;97214.63;;;4.84;100.00
8061;BME280;4073;42.626;25.386;2023-03-04T02:45:55;97213.25;;;4.93;100.00
8061;BME280;4073;42.626;25.386;2023-03-04T02:48:21;97215.66;;;4.94;100.00
8061;BME280;4073;42.626;25.386;2023-03-04T02:50:50;97205.53;;;4.91;100.00
8061;BME280;4073;42.626;25.386;2023-03-04T02:53:17;97221.03;;;4.99;100.00
8061;BME280;4073;42.626;25.386;2023-03-04T02:55:43;97213.66;;;5.01;100.00
8061;BME280;4073;42.626;25.386;2023-03-04T02:58:09;97209.16;;;5.02;100.00
8061;BME280;4073;42.626;25.386;2023-03-04T03:00:35;97214.00;;;5.05;100.00
8061;BME280;4073;42.626;25.386;2023-03-04T03:03:01;97209.03;;;5.08;100.00
8061;BME280;4073;42.626;25.386;2023-03-04T03:05:29;97218.59;;;5.09;100.00
8061;BME280;4073;42.626;25.386;2023-03-04T03:07:55;97215.72;;;5.11;100.00
8061;BME280;4073;42.626;25.386;2023-03-04T03:10:21;97204.88;;;5.12;100.00
8061;BME280;4073;42.626;25.386;2023-03-04T03:12:46;97201.75;;;5.15;100.00
8061;BME280;4073;42.626;25.386;2023-03-04T03:15:12;97211.31;;;5.16;100.00
8061;BME280;4073;42.626;25.386;2023-03-04T03:17:38;97210.50;;;5.16;100.00
8061;BME280;4073;42.626;25.386;2023-03-04T03:20:04;97204.72;;;5.19;100.00
8061;BME280;4073;42.626;25.386;2023-03-04T03:22:29;97203.94;;;5.18;100.00
8061;BME280;4073;42.626;25.386;2023-03-04T03:24:55;97202.31;;;5.17;100.00
8061;BME280;4073;42.626;25.386;2023-03-04T03:27:20;97205.06;;;5.22;100.00
8061;BME280;4073;42.626;25.386;2023-03-04T03:29:46;97201.94;;;5.25;100.00
8061;BME280;4073;42.626;25.386;2023-03-04T03:32:11;97216.44;;;5.23;100.00
8061;BME280;4073;42.626;25.386;2023-03-04T03:34:37;97218.19;;;5.17;100.00
8061;BME280;4073;42.626;25.386;2023-03-04T03:37:03;97221.25;;;5.09;100.00
8061;BME280;4073;42.626;25.386;2023-03-04T03:39:28;97216.63;;;5.05;100.00
8061;BME280;4073;42.626;25.386;2023-03-04T03:41:54;97212.06;;;4.89;100.00
8061;BME280;4073;42.626;25.386;2023-03-04T03:44:19;97228.63;;;4.96;100.00
8061;BME280;4073;42.626;25.386;2023-03-04T03:46:45;97227.50;;;4.92;100.00
8061;BME280;4073;42.626;25.386;2023-03-04T03:49:11;97232.69;;;4.98;100.00
8061;BME280;4073;42.626;25.386;2023-03-04T03:51:37;97239.59;;;4.99;100.00
8061;BME280;4073;42.626;25.386;2023-03-04T03:54:02;97230.81;;;4.99;100.00
8061;BME280;4073;42.626;25.386;2023-03-04T03:56:27;97228.16;;;4.99;100.00
8061;BME280;4073;42.626;25.386;2023-03-04T03:58:53;97242.22;;;4.99;100.00
8061;BME280;4073;42.626;25.386;2023-03-04T04:01:18;97240.41;;;5.00;100.00
8061;BME280;4073;42.626;25.386;2023-03-04T04:03:44;97240.16;;;5.01;100.00
8061;BME280;4073;42.626;25.386;2023-03-04T04:06:09;97236.47;;;5.02;100.00
8061;BME280;4073;42.626;25.386;2023-03-04T04:08:35;97240.94;;;5.02;100.00
8061;BME280;4073;42.626;25.386;2023-03-04T04:11:00;97235.66;;;5.02;100.00
8061;BME280;4073;42.626;25.386;2023-03-04T04:13:26;97228.41;;;4.97;100.00
8061;BME280;4073;42.626;25.386;2023-03-04T04:15:52;97231.06;;;4.97;100.00
8061;BME280;4073;42.626;25.386;2023-03-04T04:18:17;97224.53;;;4.88;100.00
8061;BME280;4073;42.626;25.386;2023-03-04T04:20:43;97235.59;;;4.85;100.00
8061;BME280;4073;42.626;25.386;2023-03-04T04:23:08;97226.75;;;4.80;100.00
8061;BME280;4073;42.626;25.386;2023-03-04T04:25:34;97229.03;;;4.76;100.00
8061;BME280;4073;42.626;25.386;2023-03-04T04:27:59;97230.53;;;4.72;100.00
8061;BME280;4073;42.626;25.386;2023-03-04T04:30:25;97232.97;;;4.74;100.00
8061;BME280;4073;42.626;25.386;2023-03-04T04:32:50;97227.91;;;4.72;100.00
8061;BME280;4073;42.626;25.386;2023-03-04T04:35:16;97232.50;;;4.77;100.00
8061;BME280;4073;42.626;25.386;2023-03-04T04:37:42;97240.78;;;4.80;100.00
8061;BME280;4073;42.626;25.386;2023-03-04T04:40:08;97243.78;;;4.84;100.00
8061;BME280;4073;42.626;25.386;2023-03-04T04:42:33;97233.75;;;4.86;100.00
8061;BME280;4073;42.626;25.386;2023-03-04T04:44:59;97230.84;;;4.87;100.00
8061;BME280;4073;42.626;25.386;2023-03-04T04:47:24;97224.19;;;4.85;100.00
8061;BME280;4073;42.626;25.386;2023-03-04T04:49:50;97233.63;;;4.92;100.00
8061;BME280;4073;42.626;25.386;2023-03-04T04:52:16;97230.28;;;4.97;100.00
8061;BME280;4073;42.626;25.386;2023-03-04T04:54:41;97234.19;;;4.94;100.00
8061;BME280;4073;42.626;25.386;2023-03-04T04:57:06;97236.34;;;4.97;100.00
8061;BME280;4073;42.626;25.386;2023-03-04T04:59:32;97257.44;;;5.04;100.00
8061;BME280;4073;42.626;25.386;2023-03-04T05:01:57;97250.03;;;5.06;100.00
8061;BME280;4073;42.626;25.386;2023-03-04T05:04:23;97251.66;;;5.07;100.00
8061;BME280;4073;42.626;25.386;2023-03-04T05:06:48;97245.31;;;5.08;100.00
8061;BME280;4073;42.626;25.386;2023-03-04T05:09:14;97246.03;;;5.03;100.00
8061;BME280;4073;42.626;25.386;2023-03-04T05:11:39;97252.81;;;5.11;100.00
8061;BME280;4073;42.626;25.386;2023-03-04T05:14:04;97266.16;;;5.16;100.00
8061;BME280;4073;42.626;25.386;2023-03-04T05:16:30;97257.06;;;5.12;100.00
8061;BME280;4073;42.626;25.386;2023-03-04T05:18:55;97257.88;;;5.12;100.00
8061;BME280;4073;42.626;25.386;2023-03-04T05:21:21;97227.94;;;5.00;100.00
8061;BME280;4073;42.626;25.386;2023-03-04T05:23:46;97251.53;;;5.13;100.00
8061;BME280;4073;42.626;25.386;2023-03-04T05:26:14;97251.53;;;5.13;100.00
8061;BME280;4073;42.626;25.386;2023-03-04T05:28:40;97256.94;;;5.18;100.00
8061;BME280;4073;42.626;25.386;2023-03-04T05:31:05;97247.47;;;5.22;100.00
8061;BME280;4073;42.626;25.386;2023-03-04T05:33:31;97249.41;;;5.27;100.00
8061;BME280;4073;42.626;25.386;2023-03-04T05:35:57;97255.38;;;5.34;100.00
8061;BME280;4073;42.626;25.386;2023-03-04T05:38:23;97247.19;;;5.35;100.00
8061;BME280;4073;42.626;25.386;2023-03-04T05:40:55;97249.03;;;5.35;100.00
8061;BME280;4073;42.626;25.386;2023-03-04T05:43:21;97256.59;;;5.43;100.00
8061;BME280;4073;42.626;25.386;2023-03-04T05:45:48;97254.06;;;5.48;100.00
8061;BME280;4073;42.626;25.386;2023-03-04T05:48:14;97256.78;;;5.53;100.00
8061;BME280;4073;42.626;25.386;2023-03-04T05:50:39;97254.00;;;5.60;100.00
8061;BME280;4073;42.626;25.386;2023-03-04T05:53:04;97253.84;;;5.66;100.00
8061;BME280;4073;42.626;25.386;2023-03-04T05:55:30;97249.44;;;5.72;100.00
8061;BME280;4073;42.626;25.386;2023-03-04T05:57:56;97255.31;;;5.74;100.00
8061;BME280;4073;42.626;25.386;2023-03-04T06:00:22;97230.94;;;5.60;100.00
8061;BME280;4073;42.626;25.386;2023-03-04T06:02:48;97254.38;;;5.80;100.00
8061;BME280;4073;42.626;25.386;2023-03-04T06:05:14;97252.63;;;5.85;100.00
8061;BME280;4073;42.626;25.386;2023-03-04T06:07:39;97250.63;;;5.92;100.00
8061;BME280;4073;42.626;25.386;2023-03-04T06:10:08;97254.75;;;6.00;100.00
8061;BME280;4073;42.626;25.386;2023-03-04T06:12:34;97259.94;;;6.11;100.00
8061;BME280;4073;42.626;25.386;2023-03-04T06:14:59;97262.78;;;6.21;100.00
8061;BME280;4073;42.626;25.386;2023-03-04T06:17:27;97263.75;;;6.32;100.00
8061;BME280;4073;42.626;25.386;2023-03-04T06:19:53;97268.56;;;6.35;100.00
8061;BME280;4073;42.626;25.386;2023-03-04T06:22:18;97273.16;;;6.39;100.00
8061;BME280;4073;42.626;25.386;2023-03-04T06:24:44;97272.94;;;6.41;100.00
8061;BME280;4073;42.626;25.386;2023-03-04T06:27:09;97277.25;;;6.47;100.00
8061;BME280;4073;42.626;25.386;2023-03-04T06:29:34;97282.00;;;6.45;100.00
8061;BME280;4073;42.626;25.386;2023-03-04T06:32:00;97280.38;;;6.44;100.00
8061;BME280;4073;42.626;25.386;2023-03-04T06:34:26;97281.97;;;6.61;100.00
8061;BME280;4073;42.626;25.386;2023-03-04T06:36:52;97284.50;;;6.89;100.00
8061;BME280;4073;42.626;25.386;2023-03-04T06:39:18;97288.13;;;7.21;100.00
8061;BME280;4073;42.626;25.386;2023-03-04T06:41:43;97289.16;;;8.17;100.00
8061;BME280;4073;42.626;25.386;2023-03-04T06:44:09;97304.72;;;9.03;100.00
8061;BME280;4073;42.626;25.386;2023-03-04T06:46:34;97296.63;;;9.34;100.00
8061;BME280;4073;42.626;25.386;2023-03-04T06:49:00;97293.69;;;10.57;100.00
8061;BME280;4073;42.626;25.386;2023-03-04T06:51:26;97312.47;;;12.15;100.00
8061;BME280;4073;42.626;25.386;2023-03-04T06:53:51;97313.53;;;12.86;100.00
8061;BME280;4073;42.626;25.386;2023-03-04T06:56:17;97306.16;;;13.02;100.00
8061;BME280;4073;42.626;25.386;2023-03-04T06:58:43;97323.13;;;12.58;78.62
8061;BME280;4073;42.626;25.386;2023-03-04T07:03:40;97322.69;;;11.39;82.83
8061;BME280;4073;42.626;25.386;2023-03-04T07:06:06;97307.84;;;10.73;86.89
8061;BME280;4073;42.626;25.386;2023-03-04T07:08:33;97303.31;;;10.38;88.76
8061;BME280;4073;42.626;25.386;2023-03-04T07:10:59;97310.78;;;10.57;90.83
8061;BME280;4073;42.626;25.386;2023-03-04T07:13:24;97316.34;;;11.10;89.09
8061;BME280;4073;42.626;25.386;2023-03-04T07:15:50;97315.19;;;11.46;85.64
8061;BME280;4073;42.626;25.386;2023-03-04T07:18:15;97316.19;;;11.70;83.49
8061;BME280;4073;42.626;25.386;2023-03-04T07:20:41;97303.09;;;11.54;84.54
8061;BME280;4073;42.626;25.386;2023-03-04T07:23:06;97314.78;;;11.04;86.10
8061;BME280;4073;42.626;25.386;2023-03-04T07:25:32;97308.38;;;10.65;88.32
8061;BME280;4073;42.626;25.386;2023-03-04T07:27:57;97305.72;;;10.30;90.84
8061;BME280;4073;42.626;25.386;2023-03-04T07:30:23;97311.22;;;9.93;92.83
8061;BME280;4073;42.626;25.386;2023-03-04T07:32:48;97299.97;;;9.71;95.34
8061;BME280;4073;42.626;25.386;2023-03-04T07:35:13;97295.66;;;9.60;96.98
8061;BME280;4073;42.626;25.386;2023-03-04T07:37:39;97289.50;;;9.55;98.93
8061;BME280;4073;42.626;25.386;2023-03-04T07:40:05;97300.75;;;9.67;99.33
8061;BME280;4073;42.626;25.386;2023-03-04T07:42:32;97291.13;;;9.66;99.00
8061;BME280;4073;42.626;25.386;2023-03-04T07:44:57;97285.28;;;9.74;98.50
8061;BME280;4073;42.626;25.386;2023-03-04T07:47:24;97289.56;;;9.80;98.16
8061;BME280;4073;42.626;25.386;2023-03-04T07:49:50;97280.50;;;9.76;97.59
8061;BME280;4073;42.626;25.386;2023-03-04T07:52:15;97285.53;;;9.72;96.83
8061;BME280;4073;42.626;25.386;2023-03-04T07:54:41;97275.63;;;9.58;98.85
8061;BME280;4073;42.626;25.386;2023-03-04T07:57:06;97275.63;;;9.53;100.00
8061;BME280;4073;42.626;25.386;2023-03-04T07:59:31;97284.88;;;9.30;100.00
8061;BME280;4073;42.626;25.386;2023-03-04T08:01:57;97291.84;;;9.36;100.00
8061;BME280;4073;42.626;25.386;2023-03-04T08:04:22;97280.56;;;9.24;100.00
8061;BME280;4073;42.626;25.386;2023-03-04T08:06:48;97285.38;;;9.27;100.00
8061;BME280;4073;42.626;25.386;2023-03-04T08:09:13;97273.69;;;9.38;100.00
8061;BME280;4073;42.626;25.386;2023-03-04T08:11:39;97274.53;;;9.49;100.00
8061;BME280;4073;42.626;25.386;2023-03-04T08:14:05;97293.78;;;9.56;100.00
8061;BME280;4073;42.626;25.386;2023-03-04T08:16:31;97286.03;;;9.59;99.75
8061;BME280;4073;42.626;25.386;2023-03-04T08:19:00;97283.09;;;9.61;99.20
8061;BME280;4073;42.626;25.386;2023-03-04T08:21:26;97279.69;;;9.75;99.87
8061;BME280;4073;42.626;25.386;2023-03-04T08:23:53;97298.94;;;9.92;99.91
8061;BME280;4073;42.626;25.386;2023-03-04T08:26:31;97290.13;;;10.02;98.11
8061;BME280;4073;42.626;25.386;2023-03-04T08:29:02;97296.53;;;9.91;96.81
8061;BME280;4073;42.626;25.386;2023-03-04T08:31:28;97290.09;;;9.77;96.87
8061;BME280;4073;42.626;25.386;2023-03-04T08:33:53;97283.69;;;9.88;98.13
8061;BME280;4073;42.626;25.386;2023-03-04T08:36:19;97287.00;;;10.10;97.32
8061;BME280;4073;42.626;25.386;2023-03-04T08:38:45;97281.63;;;10.70;94.99
8061;BME280;4073;42.626;25.386;2023-03-04T08:41:11;97289.03;;;11.13;89.94
8061;BME280;4073;42.626;25.386;2023-03-04T08:43:37;97288.22;;;11.28;88.05
8061;BME280;4073;42.626;25.386;2023-03-04T08:46:03;97286.06;;;11.25;87.67
8061;BME280;4073;42.626;25.386;2023-03-04T08:48:29;97283.16;;;11.21;87.84
8061;BME280;4073;42.626;25.386;2023-03-04T08:50:55;97286.34;;;11.23;87.97
8061;BME280;4073;42.626;25.386;2023-03-04T08:53:20;97283.63;;;11.38;87.82
8061;BME280;4073;42.626;25.386;2023-03-04T08:55:47;97283.22;;;12.18;86.03
8061;BME280;4073;42.626;25.386;2023-03-04T08:58:12;97276.03;;;13.75;75.92
8061;BME280;4073;42.626;25.386;2023-03-04T09:00:41;97287.16;;;15.07;70.78
8061;BME280;4073;42.626;25.386;2023-03-04T09:03:07;97290.09;;;15.51;67.21
8061;BME280;4073;42.626;25.386;2023-03-04T09:05:32;97275.91;;;15.59;65.28
8061;BME280;4073;42.626;25.386;2023-03-04T09:07:58;97281.72;;;15.39;65.26
8061;BME280;4073;42.626;25.386;2023-03-04T09:10:24;97282.34;;;14.58;66.88
8061;BME280;4073;42.626;25.386;2023-03-04T09:12:50;97268.16;;;13.79;69.60
8061;BME280;4073;42.626;25.386;2023-03-04T09:15:16;97276.22;;;13.13;73.51
8061;BME280;4073;42.626;25.386;2023-03-04T09:17:41;97274.31;;;12.56;74.53
8061;BME280;4073;42.626;25.386;2023-03-04T09:20:08;97273.84;;;12.16;75.84
8061;BME280;4073;42.626;25.386;2023-03-04T09:22:35;97267.88;;;11.85;78.05
8061;BME280;4073;42.626;25.386;2023-03-04T09:25:01;97280.63;;;11.50;80.21
8061;BME280;4073;42.626;25.386;2023-03-04T09:27:26;97268.84;;;11.46;81.20
8061;BME280;4073;42.626;25.386;2023-03-04T09:29:52;97268.91;;;11.36;81.74
8061;BME280;4073;42.626;25.386;2023-03-04T09:32:17;97251.59;;;11.18;82.70
8061;BME280;4073;42.626;25.386;2023-03-04T09:34:43;97268.41;;;11.19;83.46
8061;BME280;4073;42.626;25.386;2023-03-04T09:37:08;97275.97;;;11.02;84.47
8061;BME280;4073;42.626;25.386;2023-03-04T09:39:33;97259.69;;;10.88;84.37
8061;BME280;4073;42.626;25.386;2023-03-04T09:41:59;97260.72;;;10.97;85.11
8061;BME280;4073;42.626;25.386;2023-03-04T09:44:45;97242.28;;;10.96;85.29
8061;BME280;4073;42.626;25.386;2023-03-04T09:47:15;97253.75;;;11.11;85.46
8061;BME280;4073;42.626;25.386;2023-03-04T09:49:55;97252.66;;;11.07;84.92
8061;BME280;4073;42.626;25.386;2023-03-04T09:52:36;97252.13;;;11.10;84.91
8061;BME280;4073;42.626;25.386;2023-03-04T09:57:49;97247.78;;;11.24;84.62
8061;BME280;4073;42.626;25.386;2023-03-04T10:00:34;97233.81;;;11.37;83.40
8061;BME280;4073;42.626;25.386;2023-03-04T10:05:52;97234.25;;;11.69;82.03
8061;BME280;4073;42.626;25.386;2023-03-04T10:08:50;97220.88;;;12.03;80.33
8061;BME280;4073;42.626;25.386;2023-03-04T10:11:22;97218.31;;;12.21;79.96
8061;BME280;4073;42.626;25.386;2023-03-04T10:16:41;97227.22;;;12.50;78.35
8061;BME280;4073;42.626;25.386;2023-03-04T10:19:27;97217.97;;;12.61;78.26
8061;BME280;4073;42.626;25.386;2023-03-04T10:21:54;97209.47;;;12.54;76.79
8061;BME280;4073;42.626;25.386;2023-03-04T10:24:21;97208.47;;;12.45;76.64
8061;BME280;4073;42.626;25.386;2023-03-04T10:27:05;97201.03;;;12.37;77.87
8061;BME280;4073;42.626;25.386;2023-03-04T10:29:35;97195.25;;;12.25;77.13
8061;BME280;4073;42.626;25.386;2023-03-04T10:32:00;97197.16;;;12.20;76.47
8061;BME280;4073;42.626;25.386;2023-03-04T10:34:26;97193.75;;;12.09;76.40
8061;BME280;4073;42.626;25.386;2023-03-04T10:37:02;97185.91;;;12.18;77.83
8061;BME280;4073;42.626;25.386;2023-03-04T10:39:32;97193.44;;;12.16;77.60
8061;BME280;4073;42.626;25.386;2023-03-04T10:44:23;97180.88;;;12.16;76.81
8061;BME280;4073;42.626;25.386;2023-03-04T10:46:50;97175.53;;;12.11;78.20
8061;BME280;4073;42.626;25.386;2023-03-04T10:49:18;97172.13;;;12.01;77.61
8061;BME280;4073;42.626;25.386;2023-03-04T10:52:14;97168.81;;;12.14;79.15
8061;BME280;4073;42.626;25.386;2023-03-04T10:54:51;97165.09;;;12.10;77.35
8061;BME280;4073;42.626;25.386;2023-03-04T10:57:32;97153.75;;;11.89;77.64
8061;BME280;4073;42.626;25.386;2023-03-04T11:00:00;97154.38;;;11.76;78.43
8061;BME280;4073;42.626;25.386;2023-03-04T11:02:34;97158.03;;;11.85;78.00
8061;BME280;4073;42.626;25.386;2023-03-04T11:12:37;97143.50;;;11.58;78.56
8061;BME280;4073;42.626;25.386;2023-03-04T11:15:11;97134.16;;;11.55;78.43
8061;BME280;4073;42.626;25.386;2023-03-04T11:17:44;97119.47;;;11.48;79.13
8061;BME280;4073;42.626;25.386;2023-03-04T11:22:36;97123.94;;;11.57;78.98
8061;BME280;4073;42.626;25.386;2023-03-04T11:25:11;97123.25;;;11.47;79.06
8061;BME280;4073;42.626;25.386;2023-03-04T11:27:47;97121.13;;;11.39;80.06
8061;BME280;4073;42.626;25.386;2023-03-04T11:32:52;97098.19;;;11.28;82.34
8061;BME280;4073;42.626;25.386;2023-03-04T11:38:41;97104.91;;;11.20;81.70
8061;BME280;4073;42.626;25.386;2023-03-04T11:41:13;97088.09;;;11.15;82.20
8061;BME280;4073;42.626;25.386;2023-03-04T11:43:43;97095.31;;;11.19;82.74
8061;BME280;4073;42.626;25.386;2023-03-04T11:48:55;97091.25;;;11.22;82.84
8061;BME280;4073;42.626;25.386;2023-03-04T11:57:11;97076.78;;;11.28;83.92
8061;BME280;4073;42.626;25.386;2023-03-04T12:02:13;97080.31;;;11.57;82.54
8061;BME280;4073;42.626;25.386;2023-03-04T12:10:28;97075.28;;;11.84;81.15
8061;BME280;4073;42.626;25.386;2023-03-04T12:27:18;97060.72;;;11.66;81.28
8061;BME280;4073;42.626;25.386;2023-03-04T12:30:05;97057.03;;;11.57;82.28
8061;BME280;4073;42.626;25.386;2023-03-04T12:38:27;97050.91;;;11.52;82.75
8061;BME280;4073;42.626;25.386;2023-03-04T12:44:14;97058.09;;;11.61;81.11
8061;BME280;4073;42.626;25.386;2023-03-04T12:54:50;97040.69;;;11.64;81.14
8061;BME280;4073;42.626;25.386;2023-03-04T12:57:24;97041.72;;;11.68;81.34
8061;BME280;4073;42.626;25.386;2023-03-04T13:02:33;97033.03;;;11.81;82.38
8061;BME280;4073;42.626;25.386;2023-03-04T13:07:55;97028.31;;;11.96;82.52
8061;BME280;4073;42.626;25.386;2023-03-04T13:10:23;97015.13;;;12.00;81.86
8061;BME280;4073;42.626;25.386;2023-03-04T13:12:53;97018.56;;;12.05;82.02
8061;BME280;4073;42.626;25.386;2023-03-04T13:21:15;97001.63;;;12.10;80.76
8061;BME280;4073;42.626;25.386;2023-03-04T13:23:41;97005.63;;;12.12;80.98
8061;BME280;4073;42.626;25.386;2023-03-04T13:28:45;96993.03;;;12.13;80.36
8061;BME280;4073;42.626;25.386;2023-03-04T13:31:18;97000.16;;;12.22;81.09
8061;BME280;4073;42.626;25.386;2023-03-04T13:33:46;96995.22;;;12.29;81.20
8061;BME280;4073;42.626;25.386;2023-03-04T13:41:48;96983.69;;;12.10;81.09
8061;BME280;4073;42.626;25.386;2023-03-04T13:44:56;96982.06;;;12.09;81.32
8061;BME280;4073;42.626;25.386;2023-03-04T13:47:33;96978.09;;;12.07;81.27
8061;BME280;4073;42.626;25.386;2023-03-04T13:52:48;96976.44;;;11.87;81.59
8061;BME280;4073;42.626;25.386;2023-03-04T13:55:43;96966.53;;;11.88;81.80
8061;BME280;4073;42.626;25.386;2023-03-04T13:58:25;96966.28;;;11.84;82.78
8061;BME280;4073;42.626;25.386;2023-03-04T14:00:53;96957.31;;;11.70;82.75
8061;BME280;4073;42.626;25.386;2023-03-04T14:03:27;96969.53;;;11.81;81.74
8061;BME280;4073;42.626;25.386;2023-03-04T14:06:22;96960.63;;;11.86;80.88
8061;BME280;4073;42.626;25.386;2023-03-04T14:08:49;96949.94;;;11.86;81.33
8061;BME280;4073;42.626;25.386;2023-03-04T14:11:35;96949.47;;;11.79;81.25
8061;BME280;4073;42.626;25.386;2023-03-04T14:14:09;96944.13;;;11.79;81.62
8061;BME280;4073;42.626;25.386;2023-03-04T14:16:58;96950.00;;;11.81;81.96
8061;BME280;4073;42.626;25.386;2023-03-04T14:19:27;96956.94;;;11.82;83.01
8061;BME280;4073;42.626;25.386;2023-03-04T14:21:54;96945.53;;;11.71;82.85
8061;BME280;4073;42.626;25.386;2023-03-04T14:24:21;96934.66;;;11.58;82.68
8061;BME280;4073;42.626;25.386;2023-03-04T14:26:47;96944.81;;;11.61;83.73
8061;BME280;4073;42.626;25.386;2023-03-04T14:29:27;96938.94;;;11.59;83.77
8061;BME280;4073;42.626;25.386;2023-03-04T14:31:54;96934.94;;;11.56;83.60
8061;BME280;4073;42.626;25.386;2023-03-04T14:34:29;96940.06;;;11.53;83.95
8061;BME280;4073;42.626;25.386;2023-03-04T14:37:03;96940.91;;;11.48;84.35
8061;BME280;4073;42.626;25.386;2023-03-04T14:39:31;96929.50;;;11.38;84.53
8061;BME280;4073;42.626;25.386;2023-03-04T14:42:06;96933.03;;;11.33;85.42
8061;BME280;4073;42.626;25.386;2023-03-04T14:44:47;96916.50;;;11.26;85.74
8061;BME280;4073;42.626;25.386;2023-03-04T14:47:25;96929.72;;;11.41;86.05
8061;BME280;4073;42.626;25.386;2023-03-04T14:49:54;96923.22;;;11.52;84.89
8061;BME280;4073;42.626;25.386;2023-03-04T14:52:36;96926.84;;;11.66;85.38
8061;BME280;4073;42.626;25.386;2023-03-04T14:55:16;96917.72;;;11.67;84.94
8061;BME280;4073;42.626;25.386;2023-03-04T14:57:46;96920.41;;;11.67;85.14
8061;BME280;4073;42.626;25.386;2023-03-04T15:02:40;96913.00;;;11.83;84.92
8061;BME280;4073;42.626;25.386;2023-03-04T15:05:09;96911.91;;;11.84;83.72